Albany Center, Vermont
Current Conditions -  °F | °C
As of 4:35 PM on Wednesday 26 Nov 2014 (Local Time) from KEFK Reporting Station
Light Snow Light Snow  
Wind Chill: -7°   Ceiling: 700
Heat Index: -2°   Visibility: 1.7mi
Dew Point: -3°   Wind: 9mph
Humidity: 94%   Direction: 360°N
Pressure: 30.1"   Gusts: NA
Location:  44.8143°N, 72.284°W
Report Text: KEFK 262135Z AUTO 36008KT 1 3/4SM -SN OVC007 M02/M03 A3010 RMK AO2 T10231031
Loading
Personal Weather Stations






























Interactive Weather Map New forecast layout! Learn more

10-Day Weather Forecast

Advertisements
Track Severe Weather on mobile